Time;durP1;ratioP1;P1;durP2;ratioP2;P2;SDS_P1;SDS_P2;PMS_P1;PMS_P2;Temp;Humidity;BMP_temperature;BMP_pressure;BME280_temperature;BME280_humidity;BME280_pressure;Samples;Min_cycle;Max_cycle;Signal;HPM_P1;HPM_P2
2023/03/02 00:02:21;;;;;;;16.53;10.67;;;;;;;-4.10;100.00;102159.00;10430060;28;20033;-76
2023/03/02 00:07:25;;;;;;;16.35;10.45;;;;;;;-4.09;100.00;102159.91;10367161;28;20312;-76
2023/03/02 00:12:26;;;;;;;14.63;9.68;;;;;;;-4.13;100.00;102161.19;10392517;28;20589;-76
2023/03/02 00:17:27;;;;;;;22.57;10.20;;;;;;;-4.17;100.00;102164.06;10415024;28;20041;-76
2023/03/02 00:22:28;;;;;;;17.47;10.10;;;;;;;-4.25;100.00;102163.06;10411727;28;20124;-76
2023/03/02 00:27:28;;;;;;;18.73;10.97;;;;;;;-4.28;100.00;102152.47;10464938;28;20507;-75
2023/03/02 00:32:29;;;;;;;22.10;12.27;;;;;;;-4.32;100.00;102153.72;10479611;28;20041;-76
2023/03/02 00:37:29;;;;;;;21.33;12.23;;;;;;;-4.34;100.00;102156.78;10448628;28;20136;-76
2023/03/02 00:42:30;;;;;;;16.97;11.43;;;;;;;-4.44;100.00;102150.50;10480573;28;20128;-76
2023/03/02 00:47:34;;;;;;;21.20;11.10;;;;;;;-4.48;100.00;102155.03;10462578;28;20472;-76
2023/03/02 00:52:34;;;;;;;15.18;9.88;;;;;;;-4.57;100.00;102145.47;10455737;28;20037;-76
2023/03/02 00:57:35;;;;;;;24.10;9.83;;;;;;;-4.65;100.00;102155.41;10469157;28;20083;-76
2023/03/02 01:02:42;;;;;;;20.23;11.53;;;;;;;-4.69;100.00;102154.09;10482414;28;20147;-76
2023/03/02 01:07:43;;;;;;;15.48;10.05;;;;;;;-4.77;100.00;102152.19;10462722;28;20408;-75
2023/03/02 01:12:43;;;;;;;19.67;11.33;;;;;;;-4.76;100.00;102151.47;10465492;28;20067;-75
2023/03/02 01:17:45;;;;;;;14.03;10.40;;;;;;;-4.72;100.00;102139.28;10436244;28;20123;-76
2023/03/02 01:22:45;;;;;;;;;;;;;;;-4.60;100.00;102139.03;10428069;28;20040;-76
2023/03/02 01:27:46;;;;;;;17.88;11.07;;;;;;;-4.61;100.00;102138.13;10442890;28;20698;-75
2023/03/02 01:32:46;;;;;;;15.57;9.57;;;;;;;-4.63;100.00;102124.25;10436858;28;20037;-75
2023/03/02 01:37:47;;;;;;;16.17;10.30;;;;;;;-4.63;100.00;102113.09;10435961;28;20033;-75
2023/03/02 01:42:51;;;;;;;19.27;12.30;;;;;;;-4.54;100.00;102110.81;10423624;28;20128;-75
2023/03/02 01:47:51;;;;;;;19.58;11.73;;;;;;;-4.63;100.00;102115.63;10395489;28;20095;-76
2023/03/02 01:52:52;;;;;;;17.10;12.63;;;;;;;-4.72;100.00;102108.63;10426434;28;20120;-75
2023/03/02 01:57:53;;;;;;;14.73;9.23;;;;;;;-4.70;100.00;102108.84;10380816;28;20041;-76
2023/03/02 02:02:54;;;;;;;17.73;12.10;;;;;;;-4.73;100.00;102104.25;10442390;28;20068;-75
2023/03/02 02:07:54;;;;;;;17.98;11.20;;;;;;;-4.80;100.00;102095.59;10446527;28;20587;-75
2023/03/02 02:12:55;;;;;;;14.60;10.43;;;;;;;-4.80;100.00;102091.41;10459612;28;20051;-76
2023/03/02 02:17:55;;;;;;;15.40;11.57;;;;;;;-4.79;100.00;102090.69;10428766;28;20052;-75
2023/03/02 02:23:24;;;;;;;16.97;11.10;;;;;;;-4.78;100.00;102092.50;10417985;28;20569;-76
2023/03/02 02:28:36;;;;;;;24.70;12.32;;;;;;;-4.86;100.00;102088.06;10436453;28;20140;-74
2023/03/02 02:33:37;;;;;;;17.35;10.35;;;;;;;-4.94;100.00;102084.53;10480223;28;20045;-75
2023/03/02 02:38:37;;;;;;;22.70;14.90;;;;;;;-4.97;100.00;102085.75;10441752;28;20047;-75
2023/03/02 02:43:38;;;;;;;22.03;12.83;;;;;;;-4.92;100.00;102085.66;10435656;28;20116;-74
2023/03/02 02:48:38;;;;;;;24.07;11.67;;;;;;;-4.99;100.00;102089.75;10456771;28;20127;-74
2023/03/02 02:53:44;;;;;;;19.30;11.17;;;;;;;-4.96;100.00;102083.41;10421965;28;20061;-75
2023/03/02 02:58:52;;;;;;;16.90;11.55;;;;;;;-5.06;100.00;102088.06;10431043;28;20040;-74
2023/03/02 03:03:57;;;;;;;20.48;13.20;;;;;;;-5.14;100.00;102086.13;10437868;28;20165;-75
2023/03/02 03:09:01;;;;;;;20.45;12.63;;;;;;;-5.26;100.00;102093.09;10414047;28;20037;-75
2023/03/02 03:14:14;;;;;;;20.92;12.48;;;;;;;-5.20;100.00;102079.53;10410071;28;20645;-75
2023/03/02 03:19:15;;;;;;;19.60;14.27;;;;;;;-5.13;100.00;102083.75;10409754;28;20037;-75
2023/03/02 03:24:16;;;;;;;19.90;12.53;;;;;;;-5.12;100.00;102079.59;10411593;28;20049;-75
2023/03/02 03:29:17;;;;;;;18.43;13.40;;;;;;;-5.20;100.00;102073.47;10453512;28;20111;-74
2023/03/02 03:34:17;;;;;;;22.73;15.27;;;;;;;-5.12;100.00;102080.50;10439272;28;20040;-75
2023/03/02 03:39:18;;;;;;;17.93;11.77;;;;;;;-5.13;100.00;102068.44;10424250;28;20045;-75
2023/03/02 03:44:19;;;;;;;22.57;11.90;;;;;;;-5.21;100.00;102071.66;10475584;28;20037;-75
2023/03/02 03:49:19;;;;;;;19.73;12.37;;;;;;;-5.25;100.00;102070.34;10459802;28;20032;-75
2023/03/02 03:54:19;;;;;;;19.10;12.27;;;;;;;-5.26;100.00;102076.16;10467392;28;20037;-74
2023/03/02 03:59:21;;;;;;;17.90;10.50;;;;;;;-5.26;100.00;102072.69;10444247;28;20035;-74
2023/03/02 04:04:25;;;;;;;17.73;10.82;;;;;;;-5.16;100.00;102068.06;10419403;28;20179;-75
2023/03/02 04:09:25;;;;;;;23.80;13.30;;;;;;;-5.01;100.00;102072.59;10471113;28;20513;-75
2023/03/02 04:14:26;;;;;;;18.67;11.97;;;;;;;-4.79;100.00;102071.91;10409819;28;20041;-75
2023/03/02 04:19:26;;;;;;;19.60;13.50;;;;;;;-4.86;100.00;102067.63;10367089;28;20094;-74
2023/03/02 04:24:27;;;;;;;23.93;11.97;;;;;;;-4.99;100.00;102067.69;10438342;28;20479;-75
2023/03/02 04:29:27;;;;;;;23.17;12.40;;;;;;;-4.95;100.00;102069.00;10441137;28;20183;-76
2023/03/02 04:34:28;;;;;;;17.63;11.20;;;;;;;-4.92;100.00;102075.44;10432980;28;20547;-76
2023/03/02 04:39:28;;;;;;;18.57;11.13;;;;;;;-4.94;100.00;102075.94;10430931;28;20439;-75
2023/03/02 04:44:29;;;;;;;14.07;9.53;;;;;;;-5.03;100.00;102068.03;10442549;28;20045;-75
2023/03/02 04:49:29;;;;;;;18.83;11.37;;;;;;;-5.11;100.00;102069.56;10478350;28;20029;-75
2023/03/02 04:54:30;;;;;;;23.40;12.63;;;;;;;-5.12;100.00;102070.28;10434703;28;20148;-74
2023/03/02 04:59:30;;;;;;;16.37;10.13;;;;;;;-5.24;100.00;102076.34;10460697;28;20178;-74
2023/03/02 05:04:31;;;;;;;13.47;9.47;;;;;;;-5.31;100.00;102067.91;10443921;28;20124;-74
2023/03/02 05:09:32;;;;;;;18.60;10.90;;;;;;;-5.36;100.00;102078.25;10438147;28;20047;-75
2023/03/02 05:14:32;;;;;;;16.93;10.77;;;;;;;-5.21;100.00;102069.09;10429108;28;20053;-75
2023/03/02 05:19:33;;;;;;;19.20;11.83;;;;;;;-5.28;100.00;102081.78;10458034;28;20506;-75
2023/03/02 05:24:34;;;;;;;16.30;10.57;;;;;;;-5.34;100.00;102074.25;10444729;28;20048;-75
2023/03/02 05:29:34;;;;;;;20.45;11.10;;;;;;;-5.49;100.00;102080.81;10458057;28;20029;-75
2023/03/02 05:34:35;;;;;;;18.33;11.37;;;;;;;-5.57;100.00;102079.81;10429509;28;20041;-75
2023/03/02 05:39:35;;;;;;;16.50;10.47;;;;;;;-5.58;100.00;102070.31;10472860;28;20128;-76
2023/03/02 05:44:36;;;;;;;18.77;9.63;;;;;;;-5.65;100.00;102075.34;10415175;28;20152;-75
2023/03/02 05:49:36;;;;;;;23.03;11.03;;;;;;;-5.68;100.00;102077.50;10446286;28;20127;-75
2023/03/02 05:54:37;;;;;;;19.83;11.07;;;;;;;-5.78;100.00;102086.47;10455742;28;20127;-74
2023/03/02 05:59:38;;;;;;;21.93;11.17;;;;;;;-5.84;100.00;102078.00;10448059;28;20083;-74
2023/03/02 06:04:42;;;;;;;10.33;6.77;;;;;;;-5.92;100.00;102084.63;10413525;28;20037;-74
2023/03/02 06:09:42;;;;;;;15.00;9.63;;;;;;;-5.85;100.00;102091.47;10438454;28;20508;-75
2023/03/02 06:14:43;;;;;;;22.07;11.77;;;;;;;-5.77;100.00;102093.41;10446095;28;20044;-74
2023/03/02 06:19:45;;;;;;;20.67;12.48;;;;;;;-5.69;100.00;102089.31;10427045;28;20538;-74
2023/03/02 06:24:45;;;;;;;19.33;12.47;;;;;;;-5.71;100.00;102090.75;10442662;28;20201;-74
2023/03/02 06:29:46;;;;;;;16.20;12.67;;;;;;;-5.71;100.00;102085.63;10450859;28;20041;-74
2023/03/02 06:34:47;;;;;;;17.97;10.90;;;;;;;-5.76;100.00;102082.50;10428011;28;20036;-75
2023/03/02 06:39:47;;;;;;;20.77;11.43;;;;;;;-5.73;100.00;102087.06;10511959;28;20033;-74
2023/03/02 06:44:50;;;;;;;;;;;;;;;-5.52;100.00;102089.00;10473296;28;20511;-75
2023/03/02 06:49:51;;;;;;;20.52;12.60;;;;;;;-5.05;100.00;102079.66;10455256;28;19920;-74
2023/03/02 06:54:51;;;;;;;14.10;9.73;;;;;;;-4.58;100.00;102082.31;10476571;28;20163;-75
2023/03/02 06:59:51;;;;;;;16.93;10.80;;;;;;;-4.58;100.00;102073.69;10484494;28;20564;-74
2023/03/02 07:04:52;;;;;;;21.77;12.47;;;;;;;-4.66;100.00;102080.41;10448102;28;20087;-74
2023/03/02 07:09:52;;;;;;;18.40;11.43;;;;;;;-4.67;100.00;102077.63;10395668;28;20076;-75
2023/03/02 07:14:53;;;;;;;23.57;10.60;;;;;;;-4.00;100.00;102086.91;10441044;28;20549;-73
2023/03/02 07:19:53;;;;;;;17.40;11.03;;;;;;;-2.87;100.00;102086.97;10426250;28;20135;-74
2023/03/02 07:24:54;;;;;;;14.60;8.13;;;;;;;-2.19;100.00;102076.19;10433433;28;20124;-75
2023/03/02 07:29:54;;;;;;;17.77;9.18;;;;;;;-1.00;100.00;102069.28;10456019;28;20115;-74
2023/03/02 07:34:55;;;;;;;15.50;8.55;;;;;;;-0.39;100.00;102071.78;10425922;28;20403;-76
2023/03/02 07:39:55;;;;;;;12.32;9.45;;;;;;;-0.21;100.00;102069.41;10420075;28;20041;-75
2023/03/02 07:44:56;;;;;;;15.25;9.30;;;;;;;-0.62;100.00;102072.69;10423916;28;20383;-76
2023/03/02 07:49:56;;;;;;;12.70;7.78;;;;;;;-0.80;100.00;102084.41;10411482;28;20076;-76
2023/03/02 07:54:57;;;;;;;14.57;9.02;;;;;;;-0.72;100.00;102085.25;10406968;28;20458;-75
2023/03/02 07:59:57;;;;;;;12.95;9.93;;;;;;;-0.48;100.00;102083.59;10464780;28;20039;-75
2023/03/02 08:04:58;;;;;;;11.80;8.98;;;;;;;-0.27;100.00;102084.16;10475139;28;20115;-75
2023/03/02 08:09:59;;;;;;;12.18;7.97;;;;;;;-0.05;100.00;102090.03;10465049;28;20082;-75
2023/03/02 08:15:00;;;;;;;14.30;8.95;;;;;;;0.14;100.00;102081.00;10441366;28;20045;-77
2023/03/02 08:20:00;;;;;;;14.50;8.52;;;;;;;0.30;100.00;102080.09;10416628;28;20057;-75
2023/03/02 08:25:01;;;;;;;61.95;27.00;;;;;;;0.48;100.00;102085.41;10390827;28;20099;-75
2023/03/02 08:30:01;;;;;;;38.58;23.80;;;;;;;0.72;100.00;102080.31;10427475;28;20068;-74
2023/03/02 08:35:03;;;;;;;11.98;8.00;;;;;;;1.08;100.00;102080.56;10446172;28;20373;-75
2023/03/02 08:40:04;;;;;;;14.53;9.80;;;;;;;1.26;100.00;102081.56;10411056;28;20054;-75
2023/03/02 08:45:05;;;;;;;19.95;10.95;;;;;;;1.22;100.00;102071.69;10429580;28;20033;-73
2023/03/02 08:50:05;;;;;;;12.18;10.38;;;;;;;1.53;100.00;102072.28;10446497;28;20029;-74
2023/03/02 08:55:07;;;;;;;15.00;9.40;;;;;;;1.69;100.00;102075.69;10445219;28;20025;-74
2023/03/02 09:00:13;;;;;;;13.00;9.73;;;;;;;1.86;100.00;102066.19;10444584;28;20408;-74
2023/03/02 09:05:13;;;;;;;11.82;6.93;;;;;;;2.23;100.00;102061.25;10444620;28;20287;-74
2023/03/02 09:10:14;;;;;;;11.40;7.38;;;;;;;2.54;100.00;102060.06;10446852;28;20033;-75
2023/03/02 09:15:14;;;;;;;13.00;8.13;;;;;;;2.60;100.00;102060.66;10444802;28;20186;-75
2023/03/02 09:20:15;;;;;;;15.70;7.85;;;;;;;2.91;100.00;102045.56;10445096;28;20061;-75
2023/03/02 09:25:17;;;;;;;12.90;8.55;;;;;;;3.01;92.67;102049.03;10445514;28;20398;-75
2023/03/02 09:30:17;;;;;;;20.08;9.68;;;;;;;3.16;94.73;102042.78;10427903;28;20037;-75
2023/03/02 09:35:18;;;;;;;14.52;8.75;;;;;;;3.44;89.85;102037.66;10445256;28;20388;-75
2023/03/02 09:40:20;;;;;;;13.65;7.85;;;;;;;3.57;90.80;102042.34;10443750;28;20033;-75
2023/03/02 09:45:38;;;;;;;14.80;9.07;;;;;;;4.02;88.25;102043.91;10427028;28;20420;-74
2023/03/02 09:51:15;;;;;;;14.32;9.38;;;;;;;4.21;84.62;102036.16;10443750;28;20044;-75
2023/03/02 09:56:16;;;;;;;12.90;7.60;;;;;;;4.92;84.79;102033.84;10442907;28;20103;-74
2023/03/02 10:01:21;;;;;;;14.82;7.15;;;;;;;6.05;75.64;102032.31;10426346;28;20037;-75
2023/03/02 10:06:21;;;;;;;11.95;6.03;;;;;;;8.88;65.43;102023.09;10427441;28;20032;-75
2023/03/02 10:11:30;;;;;;;29.55;18.73;;;;;;;11.02;51.85;102028.16;10442133;28;20457;-75
2023/03/02 10:16:37;;;;;;;31.35;19.48;;;;;;;13.17;44.93;102015.50;10473663;28;20026;-75
2023/03/02 10:21:42;;;;;;;16.63;9.45;;;;;;;13.55;42.64;102022.81;10471277;28;20048;-75
2023/03/02 10:26:44;;;;;;;13.80;7.97;;;;;;;14.65;39.62;102004.75;10482348;28;20037;-75
2023/03/02 10:31:45;;;;;;;;;;;;;;;14.57;39.31;102014.00;10449518;28;20051;-75
2023/03/02 10:36:46;;;;;;;11.85;7.38;;;;;;;15.00;38.08;102008.22;10484287;28;19920;-75
2023/03/02 10:42:18;;;;;;;15.07;11.45;;;;;;;15.45;35.41;102006.75;10484917;28;20060;-75
2023/03/02 10:47:23;;;;;;;11.13;7.47;;;;;;;14.92;36.98;101996.41;10431631;28;20037;-75
2023/03/02 10:52:24;;;;;;;13.32;7.20;;;;;;;15.60;36.33;101993.34;10440199;28;20045;-75
2023/03/02 10:57:29;;;;;;;13.70;8.35;;;;;;;15.52;36.35;101995.66;10423469;28;20071;-75
2023/03/02 11:02:32;;;;;;;14.38;8.48;;;;;;;15.64;35.60;102001.47;10443363;28;20041;-75
2023/03/02 11:07:33;;;;;;;14.95;8.75;;;;;;;16.14;35.19;101993.97;10440697;28;20033;-74
2023/03/02 11:12:35;;;;;;;15.40;9.10;;;;;;;16.31;34.14;101985.88;10423922;28;20099;-75
2023/03/02 11:17:36;;;;;;;11.73;7.38;;;;;;;16.90;33.49;101987.34;10440453;28;20044;-74
2023/03/02 11:22:40;;;;;;;10.75;8.20;;;;;;;16.69;33.29;101989.19;10425188;28;20063;-75
2023/03/02 11:27:40;;;;;;;14.20;7.65;;;;;;;16.60;33.48;101983.53;10439020;28;20068;-75
2023/03/02 11:32:58;;;;;;;24.23;10.05;;;;;;;16.53;33.43;101978.84;10440475;28;20128;-76
2023/03/02 11:38:23;;;;;;;13.80;8.57;;;;;;;16.86;32.36;101978.38;10399332;28;20112;-75
2023/03/02 11:43:24;;;;;;;13.43;8.25;;;;;;;16.37;33.46;101978.19;10475021;28;20673;-76
2023/03/02 11:48:28;;;;;;;15.27;8.35;;;;;;;16.41;33.85;101968.69;10459445;28;20048;-76
2023/03/02 11:53:41;;;;;;;14.10;9.13;;;;;;;17.39;32.43;101962.81;10432482;28;20558;-77
2023/03/02 11:58:41;;;;;;;15.38;8.93;;;;;;;16.94;32.46;101952.25;10486440;28;20037;-77
2023/03/02 12:03:43;;;;;;;17.08;8.82;;;;;;;16.52;31.72;101961.19;10472547;28;20036;-76
2023/03/02 12:08:45;;;;;;;12.55;8.50;;;;;;;16.68;32.59;101944.22;10489403;28;20067;-77
2023/03/02 12:13:57;;;;;;;14.47;6.47;;;;;;;16.25;33.22;101951.28;10523063;28;20028;-77
2023/03/02 12:18:58;;;;;;;11.80;7.72;;;;;;;16.21;33.27;101944.06;10489616;28;20506;-76
2023/03/02 12:23:59;;;;;;;15.85;7.35;;;;;;;16.98;31.44;101930.41;10486431;28;20043;-76
2023/03/02 12:29:02;;;;;;;12.05;8.15;;;;;;;16.60;33.32;101930.69;10487127;28;20098;-76
2023/03/02 12:34:10;;;;;;;10.93;6.88;;;;;;;17.11;32.05;101924.75;10488900;28;20048;-77
2023/03/02 12:39:44;;;;;;;11.10;7.53;;;;;;;17.06;33.08;101920.13;10454765;28;20044;-77
2023/03/02 12:44:45;;;;;;;12.85;8.38;;;;;;;17.11;31.51;101914.19;10485981;28;20494;-77
2023/03/02 12:49:50;;;;;;;11.90;7.22;;;;;;;16.99;31.61;101901.38;10489897;28;20113;-77
2023/03/02 12:55:16;;;;;;;11.90;7.38;;;;;;;17.54;30.88;101906.88;10446288;28;20033;-76
2023/03/02 13:00:20;;;;;;;13.45;9.35;;;;;;;17.38;32.55;101899.25;10446762;28;20457;-77
2023/03/02 13:05:23;;;;;;;12.43;7.38;;;;;;;17.81;31.35;101892.81;10445018;28;20037;-76
2023/03/02 13:10:47;;;;;;;12.30;6.95;;;;;;;18.17;32.10;101888.75;10448380;28;20472;-77
2023/03/02 13:15:48;;;;;;;15.48;7.70;;;;;;;18.22;30.21;101879.19;10487742;28;20040;-77
2023/03/02 13:20:48;;;;;;;12.73;8.55;;;;;;;18.37;30.60;101878.75;10459053;28;20041;-77
2023/03/02 13:25:53;;;;;;;11.85;7.00;;;;;;;18.41;31.12;101885.06;10427769;28;20037;-77
2023/03/02 13:31:05;;;;;;;13.10;9.55;;;;;;;18.09;31.09;101874.34;10427608;28;20036;-76
2023/03/02 13:36:06;;;;;;;13.10;8.27;;;;;;;17.15;31.66;101867.56;10444002;28;20048;-77
2023/03/02 13:41:06;;;;;;;9.40;6.65;;;;;;;17.40;31.59;101865.78;10445416;28;20087;-76
2023/03/02 13:46:16;;;;;;;12.48;8.23;;;;;;;16.91;33.51;101862.25;10444807;28;20068;-77
2023/03/02 13:51:17;;;;;;;15.45;8.63;;;;;;;16.45;33.33;101864.94;10445299;28;20068;-76
2023/03/02 13:56:18;;;;;;;13.35;7.50;;;;;;;16.63;33.93;101856.78;10426710;28;20040;-77
2023/03/02 14:01:18;;;;;;;12.55;7.65;;;;;;;16.71;32.62;101854.47;10426704;28;20041;-77
2023/03/02 14:06:19;;;;;;;18.15;8.40;;;;;;;16.17;35.05;101850.63;10441093;28;20446;-77
2023/03/02 14:11:19;;;;;;;10.88;7.63;;;;;;;15.96;35.17;101842.72;10442778;28;20033;-77
2023/03/02 14:16:20;;;;;;;18.73;8.02;;;;;;;14.89;36.18;101839.00;10442953;28;20432;-77
2023/03/02 14:21:24;;;;;;;14.60;9.18;;;;;;;14.20;36.73;101847.16;10425332;28;20029;-77
2023/03/02 14:26:27;;;;;;;9.90;7.47;;;;;;;13.83;37.66;101847.97;10442789;28;20029;-77
2023/03/02 14:31:28;;;;;;;12.88;7.80;;;;;;;13.55;38.77;101842.25;10442036;28;20120;-77
2023/03/02 14:36:31;;;;;;;12.60;8.57;;;;;;;13.40;38.76;101839.69;10425116;28;20048;-77
2023/03/02 14:41:34;;;;;;;12.70;6.72;;;;;;;13.59;37.83;101838.03;10425245;28;20048;-77
2023/03/02 14:46:34;;;;;;;10.25;6.78;;;;;;;13.10;38.79;101832.00;10401438;28;20040;-75
2023/03/02 14:51:35;;;;;;;11.75;6.63;;;;;;;12.90;39.08;101823.97;10400768;28;20044;-77
2023/03/02 14:56:36;;;;;;;9.77;6.28;;;;;;;13.06;39.07;101836.22;10382423;28;20159;-76
2023/03/02 15:01:36;;;;;;;14.05;6.97;;;;;;;13.30;38.42;101821.63;10383936;28;20044;-76
2023/03/02 15:06:38;;;;;;;13.77;7.45;;;;;;;12.87;39.97;101822.91;10398466;28;20103;-76
2023/03/02 15:11:38;;;;;;;10.73;6.65;;;;;;;12.75;39.94;101815.25;10383210;28;20053;-76
2023/03/02 15:16:41;;;;;;;13.00;6.57;;;;;;;13.22;38.66;101819.50;10391954;28;20124;-76
2023/03/02 15:21:44;;;;;;;9.50;6.70;;;;;;;12.68;40.22;101821.00;10454677;28;20369;-77
2023/03/02 15:26:44;;;;;;;12.07;6.95;;;;;;;12.57;40.37;101810.81;10437290;28;20064;-77
2023/03/02 15:31:45;;;;;;;16.08;9.43;;;;;;;11.50;41.46;101811.75;10427307;28;20123;-76
2023/03/02 15:36:45;;;;;;;12.52;7.40;;;;;;;10.46;44.27;101814.22;10468063;28;20057;-75
2023/03/02 15:41:46;;;;;;;14.25;8.18;;;;;;;9.92;45.52;101822.09;10430279;28;20453;-76
2023/03/02 15:46:51;;;;;;;14.10;7.47;;;;;;;9.49;45.83;101819.25;10457458;28;20128;-76
2023/03/02 15:51:58;;;;;;;9.73;6.15;;;;;;;9.26;47.99;101818.59;10440528;28;20053;-76
2023/03/02 15:56:59;;;;;;;10.35;7.20;;;;;;;8.94;47.45;101812.06;10435532;28;20037;-76
2023/03/02 16:02:01;;;;;;;10.35;7.53;;;;;;;8.70;50.62;101825.22;10459567;28;20041;-77
2023/03/02 16:07:01;;;;;;;13.88;5.93;;;;;;;8.37;49.51;101822.91;10433766;28;20041;-78
2023/03/02 16:12:02;;;;;;;11.80;6.38;;;;;;;8.16;51.42;101826.56;10417337;28;20129;-77
2023/03/02 16:17:02;;;;;;;15.32;6.82;;;;;;;7.82;53.19;101835.41;10444036;28;20469;-77
2023/03/02 16:22:03;;;;;;;11.52;7.30;;;;;;;7.37;55.16;101838.97;10438916;28;20132;-77
2023/03/02 16:27:03;;;;;;;10.80;5.93;;;;;;;7.08;57.17;101837.63;10420887;28;20385;-77
2023/03/02 16:32:05;;;;;;;13.85;7.55;;;;;;;6.83;60.90;101841.84;10444395;28;20132;-77
2023/03/02 16:37:05;;;;;;;13.50;6.87;;;;;;;6.64;65.37;101843.78;10455287;28;20038;-77
2023/03/02 16:42:06;;;;;;;14.75;8.13;;;;;;;6.38;67.79;101838.31;10436411;28;20025;-77
2023/03/02 16:47:06;;;;;;;12.27;7.43;;;;;;;6.19;71.67;101848.94;10460323;28;20504;-76
2023/03/02 16:52:07;;;;;;;13.48;8.20;;;;;;;5.94;73.75;101845.97;10458216;28;20101;-78
2023/03/02 16:57:08;;;;;;;13.75;7.43;;;;;;;5.62;77.97;101849.41;10379386;28;20479;-77
2023/03/02 17:02:10;;;;;;;18.13;8.05;;;;;;;5.39;84.13;101856.16;10434741;28;20156;-76
2023/03/02 17:07:10;;;;;;;15.48;10.65;;;;;;;5.33;93.47;101869.56;10435131;28;20090;-77
2023/03/02 17:12:11;;;;;;;20.38;10.85;;;;;;;5.08;100.00;101867.47;10442704;28;20373;-76
2023/03/02 17:17:11;;;;;;;15.27;10.25;;;;;;;4.90;100.00;101874.56;10466108;28;20116;-77
2023/03/02 17:22:11;;;;;;;25.98;11.95;;;;;;;4.75;100.00;101876.75;10454875;28;20116;-76
2023/03/02 17:27:12;;;;;;;19.20;12.40;;;;;;;4.53;100.00;101887.81;10424813;28;20137;-77
2023/03/02 17:32:13;;;;;;;21.10;11.13;;;;;;;4.39;100.00;101902.13;10443253;28;20041;-77
2023/03/02 17:37:13;;;;;;;19.95;11.70;;;;;;;4.14;100.00;101909.41;10452758;28;20132;-78
2023/03/02 17:42:14;;;;;;;21.20;12.27;;;;;;;3.91;100.00;101921.19;10442038;28;20086;-78
2023/03/02 17:47:14;;;;;;;22.13;11.90;;;;;;;3.64;100.00;101925.63;10431490;28;20051;-78
2023/03/02 17:52:16;;;;;;;20.95;12.48;;;;;;;3.40;100.00;101928.53;10453345;28;20044;-77
2023/03/02 17:57:21;;;;;;;23.27;12.53;;;;;;;3.09;100.00;101939.47;10402573;28;20044;-78
2023/03/02 18:02:21;;;;;;;19.92;12.55;;;;;;;3.01;100.00;101954.28;10402156;28;20105;-78
2023/03/02 18:07:23;;;;;;;19.95;14.15;;;;;;;2.81;100.00;101959.22;10404978;28;20511;-77
2023/03/02 18:12:25;;;;;;;20.25;12.05;;;;;;;2.97;100.00;101969.34;10432998;28;20051;-78
2023/03/02 18:17:25;;;;;;;24.55;14.02;;;;;;;2.81;100.00;101979.91;10441560;28;20033;-78
2023/03/02 18:22:26;;;;;;;23.02;12.40;;;;;;;2.74;100.00;101976.72;10441952;28;20064;-78
2023/03/02 18:27:26;;;;;;;24.83;15.30;;;;;;;2.88;100.00;101982.31;10401754;28;20080;-78
2023/03/02 18:32:27;;;;;;;20.30;13.25;;;;;;;2.83;100.00;101987.03;10402335;28;20041;-78
2023/03/02 18:37:29;;;;;;;17.75;11.98;;;;;;;2.70;100.00;101989.19;10424802;28;20051;-77
2023/03/02 18:42:30;;;;;;;21.55;11.45;;;;;;;2.51;100.00;102002.00;10429894;28;20519;-79
2023/03/02 18:47:33;;;;;;;21.45;12.95;;;;;;;2.58;100.00;102001.84;10450134;28;20040;-78
2023/03/02 18:52:34;;;;;;;21.83;12.88;;;;;;;2.57;100.00;102000.91;10440110;28;20048;-78
2023/03/02 18:57:36;;;;;;;23.13;14.15;;;;;;;2.45;100.00;102010.97;10429316;28;20123;-77
2023/03/02 19:02:37;;;;;;;22.83;11.68;;;;;;;2.47;100.00;102018.84;10426490;28;20041;-78
2023/03/02 19:07:38;;;;;;;18.38;12.30;;;;;;;2.47;100.00;102016.25;10436848;28;20057;-78
2023/03/02 19:12:39;;;;;;;20.35;12.48;;;;;;;2.27;100.00;102016.88;10407806;28;20075;-78
2023/03/02 19:17:41;;;;;;;21.70;11.47;;;;;;;2.17;100.00;102015.03;10411934;28;20037;-78
2023/03/02 19:22:41;;;;;;;19.05;11.98;;;;;;;2.05;100.00;102023.38;10421727;28;20083;-78
2023/03/02 19:27:42;;;;;;;18.85;12.13;;;;;;;1.84;100.00;102028.97;10409313;28;20045;-75
2023/03/02 19:32:43;;;;;;;20.15;12.88;;;;;;;1.62;100.00;102034.53;10418180;28;20042;-75
2023/03/02 19:37:43;;;;;;;17.52;10.88;;;;;;;1.45;100.00;102036.28;10422141;28;20046;-75
2023/03/02 19:42:44;;;;;;;15.82;11.48;;;;;;;1.39;100.00;102033.06;10449210;28;20094;-75
2023/03/02 19:47:45;;;;;;;19.80;12.40;;;;;;;1.30;100.00;102040.78;10419311;28;20063;-76
2023/03/02 19:52:46;;;;;;;21.77;12.60;;;;;;;1.10;100.00;102038.69;10441007;28;20439;-76
2023/03/02 19:57:50;;;;;;;22.13;12.73;;;;;;;0.94;100.00;102050.72;10415990;28;20034;-77
2023/03/02 20:02:50;;;;;;;17.77;11.07;;;;;;;0.83;100.00;102058.25;10409284;28;20050;-79
2023/03/02 20:07:51;;;;;;;22.85;13.88;;;;;;;0.79;100.00;102057.78;10427015;28;20045;-76
2023/03/02 20:12:51;;;;;;;18.50;11.75;;;;;;;0.79;100.00;102066.41;10432795;28;20123;-75
2023/03/02 20:17:52;;;;;;;20.42;12.80;;;;;;;0.75;100.00;102065.94;10418416;28;20378;-76
2023/03/02 20:22:52;;;;;;;31.17;14.77;;;;;;;0.66;100.00;102071.00;10425750;28;20052;-76
2023/03/02 20:27:53;;;;;;;23.23;14.07;;;;;;;0.58;100.00;102080.50;10431146;28;20414;-74
2023/03/02 20:32:55;;;;;;;24.55;15.07;;;;;;;0.34;100.00;102082.25;10473487;28;20053;-76
2023/03/02 20:37:55;;;;;;;41.47;24.83;;;;;;;0.05;100.00;102090.31;10403409;28;20548;-75
2023/03/02 20:42:56;;;;;;;29.70;20.13;;;;;;;-0.27;100.00;102091.88;10413094;28;20045;-75
2023/03/02 20:47:56;;;;;;;35.25;19.70;;;;;;;-0.55;100.00;102088.81;10440600;28;20041;-75
2023/03/02 20:52:57;;;;;;;27.63;18.70;;;;;;;-0.51;100.00;102090.97;10445639;28;20566;-76
2023/03/02 20:57:59;;;;;;;27.88;19.52;;;;;;;-0.30;100.00;102097.63;10470971;28;20052;-76
2023/03/02 21:03:00;;;;;;;32.80;20.55;;;;;;;-0.28;100.00;102096.13;10432993;28;20098;-75
2023/03/02 21:08:00;;;;;;;29.58;19.13;;;;;;;-0.65;100.00;102098.06;10441891;28;20126;-74
2023/03/02 21:13:02;;;;;;;33.72;21.80;;;;;;;-0.95;100.00;102108.38;10463153;28;20385;-75
2023/03/02 21:18:03;;;;;;;36.13;24.90;;;;;;;-1.28;100.00;102103.78;10472566;28;20039;-76
2023/03/02 21:23:03;;;;;;;42.97;24.30;;;;;;;-1.42;100.00;102112.47;10439786;28;20045;-76
2023/03/02 21:28:04;;;;;;;37.85;23.75;;;;;;;-1.52;100.00;102116.53;10409659;28;20041;-76
2023/03/02 21:33:04;;;;;;;61.83;40.00;;;;;;;-1.46;100.00;102115.41;10442553;28;20044;-76
2023/03/02 21:38:05;;;;;;;43.13;27.17;;;;;;;-1.72;100.00;102106.53;10435054;28;20053;-75
2023/03/02 21:43:05;;;;;;;43.20;24.07;;;;;;;-2.02;100.00;102104.75;10402908;28;20136;-75
2023/03/02 21:48:06;;;;;;;47.37;26.67;;;;;;;-2.10;100.00;102108.06;10433825;28;20117;-76
2023/03/02 21:53:07;;;;;;;40.30;20.80;;;;;;;-1.84;100.00;102110.22;10412373;28;20464;-76
2023/03/02 21:58:08;;;;;;;42.03;27.83;;;;;;;-1.96;100.00;102109.66;10411505;28;20509;-76
2023/03/02 22:03:09;;;;;;;55.07;32.67;;;;;;;-2.14;100.00;102105.88;10408552;28;20056;-76
2023/03/02 22:08:13;;;;;;;54.23;31.60;;;;;;;-2.24;100.00;102101.28;10420064;28;20132;-76
2023/03/02 22:13:22;;;;;;;43.88;28.35;;;;;;;-2.60;100.00;102106.41;10410415;28;20487;-76
2023/03/02 22:18:25;;;;;;;61.95;35.05;;;;;;;-2.71;100.00;102113.72;10402994;28;20377;-76
2023/03/02 22:23:26;;;;;;;71.65;40.42;;;;;;;-2.56;100.00;102104.41;10440881;28;20037;-75
2023/03/02 22:28:27;;;;;;;77.00;42.13;;;;;;;-2.49;100.00;102106.06;10421217;28;20049;-76
2023/03/02 22:33:28;;;;;;;73.20;44.07;;;;;;;-2.12;100.00;102109.53;10403605;28;20515;-75
2023/03/02 22:38:29;;;;;;;89.40;50.03;;;;;;;-1.92;100.00;102112.78;10414869;28;20061;-76